Impacts TAF Board INFO
FOR SITUATIONAL AWARENESS. NOT TO BE USED FOR FLIGHT PLANNING PURPOSES.
IDs:

KATL - Atlanta/Hartsfield-J, GA, US

Issued at 1948 UTC 12 Dec 2017
Updated at 1956 UTC 12 Dec 2017
Potential Impact None Slight Moderate High
Time1952Z 12/20Z 12/21Z 12/22Z 12/23Z 13/00Z 13/01Z 13/02Z 13/03Z 13/04Z 13/05Z 13/06Z 13/07Z 13/08Z>>
Type OBS PRVL PRVL PRVL PRVL PRVL PRVL PRVL PRVL PRVL PRVL PRVL PRVL PRVL
VIS 10 >6 >6 >6 >6 >6 >6 >6 >6 >6 >6 >6 >6 >6
CIG -- 35 -- -- -- -- -- -- -- -- -- -- -- --
Cover FEW BKN SCT SCT SCT SCT SCT SKC SKC SKC SKC SKC SKC SKC
FltCat VFR VFR VFR VFR VFR VFR VFR VFR VFR VFR VFR VFR VFR VFR
WX -- -- -- -- -- -- -- -- -- -- -- -- -- --
WDir 330 310 320 320 320 320 320 310 310 310 310 310 310 310
WSpd 13 16 15 15 15 15 15 12 12 12 12 10 10 10
WGst 25 30 28 28 28 28 28 18 18 18 18 -- -- --

Raw TAF
KATL 121948Z 1220/1324 31016G30KT P6SM BKN035
  FM122100 32015G28KT P6SM SCT030
  FM130200 31012G18KT P6SM SKC
  FM130600 31010KT P6SM SKC
  FM131500 29006KT P6SM FEW250
  FM131900 23010KT P6SM FEW250


Raw METAR
KATL 121952Z 33013G25KT 10SM FEW040 09/00 A2992 RMK AO2 PK WND 32027/1857 SLP133 T00890000
KATL 121852Z 31017G26KT 10SM BKN035 BKN045 08/01 A2994 RMK AO2 PK WND 30026/1850 SLP140 T00830006
KATL 121752Z 34018G28KT 10SM BKN042 09/01 A2993 RMK AO2 PK WND 33032/1728 SLP137 T00940006 10106 20050 50006
KATL 121652Z 33021G26KT 10SM BKN040 09/01 A2994 RMK AO2 PK WND 31030/1557 SLP139 T00940006

METAR Board
Radar Display
Forecast Discussion

FOR SITUATIONAL AWARENESS. NOT TO BE USED FOR FLIGHT PLANNING PURPOSES.